sensor_id;sensor_type;location;lat;lon;timestamp;temperature;humidity
7234;DHT22;3658;47.992;10.158;2023-02-26T00:00:01;19.20;33.70
7234;DHT22;3658;47.992;10.158;2023-02-26T00:02:32;19.20;33.70
7234;DHT22;3658;47.992;10.158;2023-02-26T00:05:00;19.20;33.60
7234;DHT22;3658;47.992;10.158;2023-02-26T00:07:28;19.20;33.70
7234;DHT22;3658;47.992;10.158;2023-02-26T00:09:55;19.20;33.70
7234;DHT22;3658;47.992;10.158;2023-02-26T00:12:22;19.20;33.70
7234;DHT22;3658;47.992;10.158;2023-02-26T00:14:50;19.20;33.60
7234;DHT22;3658;47.992;10.158;2023-02-26T00:17:29;19.20;33.70
7234;DHT22;3658;47.992;10.158;2023-02-26T00:19:58;19.20;33.70
7234;DHT22;3658;47.992;10.158;2023-02-26T00:22:25;19.20;33.70
7234;DHT22;3658;47.992;10.158;2023-02-26T00:24:54;19.20;33.70
7234;DHT22;3658;47.992;10.158;2023-02-26T00:27:20;19.20;33.60
7234;DHT22;3658;47.992;10.158;2023-02-26T00:29:48;19.20;33.70
7234;DHT22;3658;47.992;10.158;2023-02-26T00:32:16;19.20;33.60
7234;DHT22;3658;47.992;10.158;2023-02-26T00:34:44;19.20;33.60
7234;DHT22;3658;47.992;10.158;2023-02-26T00:37:21;19.20;33.50
7234;DHT22;3658;47.992;10.158;2023-02-26T00:39:58;19.20;33.50
7234;DHT22;3658;47.992;10.158;2023-02-26T00:42:31;19.20;33.50
7234;DHT22;3658;47.992;10.158;2023-02-26T00:44:58;19.20;33.40
7234;DHT22;3658;47.992;10.158;2023-02-26T00:47:31;19.20;33.40
7234;DHT22;3658;47.992;10.158;2023-02-26T00:50:09;19.20;33.50
7234;DHT22;3658;47.992;10.158;2023-02-26T00:52:44;19.20;33.40
7234;DHT22;3658;47.992;10.158;2023-02-26T00:55:13;19.20;33.40
7234;DHT22;3658;47.992;10.158;2023-02-26T00:57:41;19.20;33.50
7234;DHT22;3658;47.992;10.158;2023-02-26T01:00:09;19.10;33.40
7234;DHT22;3658;47.992;10.158;2023-02-26T01:02:37;19.20;33.50
7234;DHT22;3658;47.992;10.158;2023-02-26T01:05:05;19.20;33.50
7234;DHT22;3658;47.992;10.158;2023-02-26T01:07:39;19.20;33.50
7234;DHT22;3658;47.992;10.158;2023-02-26T01:10:08;19.20;33.50
7234;DHT22;3658;47.992;10.158;2023-02-26T01:12:37;19.20;33.40
7234;DHT22;3658;47.992;10.158;2023-02-26T01:15:06;19.20;33.40
7234;DHT22;3658;47.992;10.158;2023-02-26T01:17:37;19.20;33.40
7234;DHT22;3658;47.992;10.158;2023-02-26T01:20:08;19.10;33.40
7234;DHT22;3658;47.992;10.158;2023-02-26T01:22:40;19.10;33.40
7234;DHT22;3658;47.992;10.158;2023-02-26T01:25:10;19.10;33.40
7234;DHT22;3658;47.992;10.158;2023-02-26T01:27:39;19.20;33.40
7234;DHT22;3658;47.992;10.158;2023-02-26T01:30:07;19.20;33.40
7234;DHT22;3658;47.992;10.158;2023-02-26T01:32:42;19.20;33.50
7234;DHT22;3658;47.992;10.158;2023-02-26T01:35:20;19.10;33.40
7234;DHT22;3658;47.992;10.158;2023-02-26T01:37:52;19.10;33.40
7234;DHT22;3658;47.992;10.158;2023-02-26T01:40:45;19.20;33.50
7234;DHT22;3658;47.992;10.158;2023-02-26T01:43:23;19.10;33.40
7234;DHT22;3658;47.992;10.158;2023-02-26T01:45:58;19.10;33.30
7234;DHT22;3658;47.992;10.158;2023-02-26T01:48:35;19.10;33.40
7234;DHT22;3658;47.992;10.158;2023-02-26T01:51:02;19.10;33.30
7234;DHT22;3658;47.992;10.158;2023-02-26T01:53:29;19.10;33.30
7234;DHT22;3658;47.992;10.158;2023-02-26T01:55:58;19.10;33.30
7234;DHT22;3658;47.992;10.158;2023-02-26T01:58:31;19.10;33.30
7234;DHT22;3658;47.992;10.158;2023-02-26T02:00:59;19.10;33.40
7234;DHT22;3658;47.992;10.158;2023-02-26T02:03:28;19.10;33.40
7234;DHT22;3658;47.992;10.158;2023-02-26T02:05:59;19.10;33.40
7234;DHT22;3658;47.992;10.158;2023-02-26T02:08:29;19.10;33.40
7234;DHT22;3658;47.992;10.158;2023-02-26T02:10:58;19.10;33.40
7234;DHT22;3658;47.992;10.158;2023-02-26T02:13:36;19.10;33.40
7234;DHT22;3658;47.992;10.158;2023-02-26T02:16:15;19.10;33.40
7234;DHT22;3658;47.992;10.158;2023-02-26T02:18:51;19.10;33.40
7234;DHT22;3658;47.992;10.158;2023-02-26T02:21:50;19.10;33.40
7234;DHT22;3658;47.992;10.158;2023-02-26T02:24:27;19.10;33.30
7234;DHT22;3658;47.992;10.158;2023-02-26T02:27:02;19.10;33.40
7234;DHT22;3658;47.992;10.158;2023-02-26T02:30:03;19.10;33.30
7234;DHT22;3658;47.992;10.158;2023-02-26T02:32:35;19.10;33.30
7234;DHT22;3658;47.992;10.158;2023-02-26T02:35:09;19.10;33.40
7234;DHT22;3658;47.992;10.158;2023-02-26T02:37:39;19.10;33.40
7234;DHT22;3658;47.992;10.158;2023-02-26T02:40:09;19.00;33.30
7234;DHT22;3658;47.992;10.158;2023-02-26T02:42:42;19.10;33.40
7234;DHT22;3658;47.992;10.158;2023-02-26T02:45:14;19.10;33.40
7234;DHT22;3658;47.992;10.158;2023-02-26T02:47:47;19.10;33.40
7234;DHT22;3658;47.992;10.158;2023-02-26T02:50:19;19.00;33.40
7234;DHT22;3658;47.992;10.158;2023-02-26T02:52:51;19.00;33.40
7234;DHT22;3658;47.992;10.158;2023-02-26T02:55:23;19.00;33.40
7234;DHT22;3658;47.992;10.158;2023-02-26T02:57:54;19.00;33.30
7234;DHT22;3658;47.992;10.158;2023-02-26T03:00:27;19.00;33.40
7234;DHT22;3658;47.992;10.158;2023-02-26T03:03:03;19.00;33.30
7234;DHT22;3658;47.992;10.158;2023-02-26T03:05:32;19.00;33.30
7234;DHT22;3658;47.992;10.158;2023-02-26T03:08:02;19.00;33.20
7234;DHT22;3658;47.992;10.158;2023-02-26T03:10:30;19.00;33.30
7234;DHT22;3658;47.992;10.158;2023-02-26T03:12:57;19.00;33.30
7234;DHT22;3658;47.992;10.158;2023-02-26T03:15:41;19.00;33.30
7234;DHT22;3658;47.992;10.158;2023-02-26T03:18:23;19.00;33.30
7234;DHT22;3658;47.992;10.158;2023-02-26T03:20:57;19.00;33.30
7234;DHT22;3658;47.992;10.158;2023-02-26T03:23:32;19.00;33.30
7234;DHT22;3658;47.992;10.158;2023-02-26T03:26:05;19.00;33.20
7234;DHT22;3658;47.992;10.158;2023-02-26T03:28:38;19.00;33.30
7234;DHT22;3658;47.992;10.158;2023-02-26T03:31:09;19.00;33.20
7234;DHT22;3658;47.992;10.158;2023-02-26T03:33:47;19.00;33.20
7234;DHT22;3658;47.992;10.158;2023-02-26T03:36:20;19.00;33.20
7234;DHT22;3658;47.992;10.158;2023-02-26T03:38:52;19.00;33.30
7234;DHT22;3658;47.992;10.158;2023-02-26T03:41:23;19.00;33.20
7234;DHT22;3658;47.992;10.158;2023-02-26T03:43:55;19.00;33.20
7234;DHT22;3658;47.992;10.158;2023-02-26T03:46:28;19.00;33.20
7234;DHT22;3658;47.992;10.158;2023-02-26T03:49:00;19.00;33.20
7234;DHT22;3658;47.992;10.158;2023-02-26T03:51:29;19.00;33.30
7234;DHT22;3658;47.992;10.158;2023-02-26T03:54:01;19.00;33.30
7234;DHT22;3658;47.992;10.158;2023-02-26T03:56:31;19.00;33.20
7234;DHT22;3658;47.992;10.158;2023-02-26T03:59:00;19.00;33.20
7234;DHT22;3658;47.992;10.158;2023-02-26T04:01:31;19.00;33.20
7234;DHT22;3658;47.992;10.158;2023-02-26T04:04:04;19.00;33.20
7234;DHT22;3658;47.992;10.158;2023-02-26T04:06:33;19.00;33.10
7234;DHT22;3658;47.992;10.158;2023-02-26T04:09:01;19.00;33.20
7234;DHT22;3658;47.992;10.158;2023-02-26T04:11:28;19.00;33.10
7234;DHT22;3658;47.992;10.158;2023-02-26T04:13:56;19.00;33.00
7234;DHT22;3658;47.992;10.158;2023-02-26T04:16:23;18.90;33.00
7234;DHT22;3658;47.992;10.158;2023-02-26T04:18:50;18.90;33.00
7234;DHT22;3658;47.992;10.158;2023-02-26T04:21:20;19.00;33.10
7234;DHT22;3658;47.992;10.158;2023-02-26T04:23:48;18.90;33.10
7234;DHT22;3658;47.992;10.158;2023-02-26T04:26:14;18.90;33.10
7234;DHT22;3658;47.992;10.158;2023-02-26T04:28:41;18.90;33.20
7234;DHT22;3658;47.992;10.158;2023-02-26T04:31:08;18.90;33.10
7234;DHT22;3658;47.992;10.158;2023-02-26T04:33:35;18.90;33.10
7234;DHT22;3658;47.992;10.158;2023-02-26T04:36:03;18.90;33.10
7234;DHT22;3658;47.992;10.158;2023-02-26T04:38:32;18.90;33.20
7234;DHT22;3658;47.992;10.158;2023-02-26T04:40:59;18.90;33.20
7234;DHT22;3658;47.992;10.158;2023-02-26T04:43:26;18.90;33.10
7234;DHT22;3658;47.992;10.158;2023-02-26T04:45:53;18.90;33.00
7234;DHT22;3658;47.992;10.158;2023-02-26T04:48:20;18.90;33.00
7234;DHT22;3658;47.992;10.158;2023-02-26T04:50:47;18.90;33.10
7234;DHT22;3658;47.992;10.158;2023-02-26T04:53:14;18.90;33.10
7234;DHT22;3658;47.992;10.158;2023-02-26T04:55:42;18.90;33.80
7234;DHT22;3658;47.992;10.158;2023-02-26T04:58:09;18.90;33.10
7234;DHT22;3658;47.992;10.158;2023-02-26T05:00:36;18.90;33.10
7234;DHT22;3658;47.992;10.158;2023-02-26T05:03:04;18.90;33.20
7234;DHT22;3658;47.992;10.158;2023-02-26T05:05:31;18.90;33.20
7234;DHT22;3658;47.992;10.158;2023-02-26T05:07:58;18.90;33.20
7234;DHT22;3658;47.992;10.158;2023-02-26T05:10:25;18.90;33.20
7234;DHT22;3658;47.992;10.158;2023-02-26T05:12:54;18.90;33.20
7234;DHT22;3658;47.992;10.158;2023-02-26T05:15:21;18.90;33.20
7234;DHT22;3658;47.992;10.158;2023-02-26T05:17:47;18.90;33.20
7234;DHT22;3658;47.992;10.158;2023-02-26T05:20:14;18.80;33.10
7234;DHT22;3658;47.992;10.158;2023-02-26T05:22:41;18.80;33.10
7234;DHT22;3658;47.992;10.158;2023-02-26T05:25:09;18.90;33.20
7234;DHT22;3658;47.992;10.158;2023-02-26T05:27:38;18.90;33.10
7234;DHT22;3658;47.992;10.158;2023-02-26T05:30:08;18.90;33.10
7234;DHT22;3658;47.992;10.158;2023-02-26T05:32:36;18.80;32.90
7234;DHT22;3658;47.992;10.158;2023-02-26T05:35:04;18.90;33.20
7234;DHT22;3658;47.992;10.158;2023-02-26T05:37:31;18.90;33.10
7234;DHT22;3658;47.992;10.158;2023-02-26T05:39:58;18.90;33.20
7234;DHT22;3658;47.992;10.158;2023-02-26T05:42:25;18.80;33.10
7234;DHT22;3658;47.992;10.158;2023-02-26T05:44:52;18.80;33.70
7234;DHT22;3658;47.992;10.158;2023-02-26T05:47:20;18.80;33.10
7234;DHT22;3658;47.992;10.158;2023-02-26T05:49:47;18.80;33.10
7234;DHT22;3658;47.992;10.158;2023-02-26T05:52:14;18.90;33.20
7234;DHT22;3658;47.992;10.158;2023-02-26T05:54:41;18.80;33.00
7234;DHT22;3658;47.992;10.158;2023-02-26T05:57:08;18.90;33.40
7234;DHT22;3658;47.992;10.158;2023-02-26T05:59:35;19.00;33.40
7234;DHT22;3658;47.992;10.158;2023-02-26T06:02:03;19.10;33.30
7234;DHT22;3658;47.992;10.158;2023-02-26T06:04:32;19.30;33.20
7234;DHT22;3658;47.992;10.158;2023-02-26T06:06:59;19.40;33.10
7234;DHT22;3658;47.992;10.158;2023-02-26T06:09:26;19.50;33.00
7234;DHT22;3658;47.992;10.158;2023-02-26T06:11:53;19.50;33.00
7234;DHT22;3658;47.992;10.158;2023-02-26T06:14:20;19.50;32.90
7234;DHT22;3658;47.992;10.158;2023-02-26T06:16:47;19.60;33.10
7234;DHT22;3658;47.992;10.158;2023-02-26T06:19:14;19.60;33.10
7234;DHT22;3658;47.992;10.158;2023-02-26T06:21:43;19.60;33.10
7234;DHT22;3658;47.992;10.158;2023-02-26T06:24:10;19.60;33.10
7234;DHT22;3658;47.992;10.158;2023-02-26T06:26:37;19.60;33.10
7234;DHT22;3658;47.992;10.158;2023-02-26T06:29:04;19.60;33.10
7234;DHT22;3658;47.992;10.158;2023-02-26T06:31:31;19.60;33.10
7234;DHT22;3658;47.992;10.158;2023-02-26T06:33:58;19.60;33.10
7234;DHT22;3658;47.992;10.158;2023-02-26T06:36:25;19.70;33.20
7234;DHT22;3658;47.992;10.158;2023-02-26T06:38:53;19.70;33.20
7234;DHT22;3658;47.992;10.158;2023-02-26T06:41:20;19.70;33.20
7234;DHT22;3658;47.992;10.158;2023-02-26T06:43:48;19.70;33.10
7234;DHT22;3658;47.992;10.158;2023-02-26T06:46:15;19.70;33.20
7234;DHT22;3658;47.992;10.158;2023-02-26T06:48:41;19.70;33.20
7234;DHT22;3658;47.992;10.158;2023-02-26T06:51:09;19.70;33.20
7234;DHT22;3658;47.992;10.158;2023-02-26T06:53:36;19.70;33.20
7234;DHT22;3658;47.992;10.158;2023-02-26T06:56:07;19.70;33.30
7234;DHT22;3658;47.992;10.158;2023-02-26T06:58:34;19.70;33.20
7234;DHT22;3658;47.992;10.158;2023-02-26T07:01:02;19.70;33.20
7234;DHT22;3658;47.992;10.158;2023-02-26T07:03:30;19.70;33.20
7234;DHT22;3658;47.992;10.158;2023-02-26T07:05:57;19.70;33.30
7234;DHT22;3658;47.992;10.158;2023-02-26T07:08:24;19.70;33.30
7234;DHT22;3658;47.992;10.158;2023-02-26T07:10:51;19.80;33.40
7234;DHT22;3658;47.992;10.158;2023-02-26T07:13:19;19.80;33.40
7234;DHT22;3658;47.992;10.158;2023-02-26T07:15:46;19.80;33.50
7234;DHT22;3658;47.992;10.158;2023-02-26T07:18:13;19.80;33.40
7234;DHT22;3658;47.992;10.158;2023-02-26T07:20:41;19.80;33.40
7234;DHT22;3658;47.992;10.158;2023-02-26T07:23:08;19.80;33.50
7234;DHT22;3658;47.992;10.158;2023-02-26T07:25:35;19.80;33.60
7234;DHT22;3658;47.992;10.158;2023-02-26T07:28:03;19.80;33.40
7234;DHT22;3658;47.992;10.158;2023-02-26T07:30:31;19.80;33.50
7234;DHT22;3658;47.992;10.158;2023-02-26T07:32:58;19.80;33.40
7234;DHT22;3658;47.992;10.158;2023-02-26T07:35:25;19.80;33.40
7234;DHT22;3658;47.992;10.158;2023-02-26T07:37:52;19.80;33.50
7234;DHT22;3658;47.992;10.158;2023-02-26T07:40:19;19.90;33.50
7234;DHT22;3658;47.992;10.158;2023-02-26T07:42:49;19.90;33.50
7234;DHT22;3658;47.992;10.158;2023-02-26T07:45:16;19.90;33.50
7234;DHT22;3658;47.992;10.158;2023-02-26T07:47:48;19.90;33.50
7234;DHT22;3658;47.992;10.158;2023-02-26T07:50:15;19.90;33.50
7234;DHT22;3658;47.992;10.158;2023-02-26T07:52:42;19.90;33.50
7234;DHT22;3658;47.992;10.158;2023-02-26T07:55:10;19.90;33.50
7234;DHT22;3658;47.992;10.158;2023-02-26T07:57:38;19.90;33.40
7234;DHT22;3658;47.992;10.158;2023-02-26T08:00:06;19.90;33.50
7234;DHT22;3658;47.992;10.158;2023-02-26T08:02:33;19.90;33.40
7234;DHT22;3658;47.992;10.158;2023-02-26T08:05:02;19.90;33.50
7234;DHT22;3658;47.992;10.158;2023-02-26T08:07:29;19.90;33.50
7234;DHT22;3658;47.992;10.158;2023-02-26T08:09:56;20.00;33.50
7234;DHT22;3658;47.992;10.158;2023-02-26T08:12:26;20.00;33.50
7234;DHT22;3658;47.992;10.158;2023-02-26T08:14:53;19.90;33.50
7234;DHT22;3658;47.992;10.158;2023-02-26T08:17:20;19.90;33.50
7234;DHT22;3658;47.992;10.158;2023-02-26T08:19:47;20.00;33.50
7234;DHT22;3658;47.992;10.158;2023-02-26T08:22:16;20.00;33.50
7234;DHT22;3658;47.992;10.158;2023-02-26T08:24:43;20.00;33.50
7234;DHT22;3658;47.992;10.158;2023-02-26T08:27:10;20.00;33.50
7234;DHT22;3658;47.992;10.158;2023-02-26T08:29:38;20.00;33.50
7234;DHT22;3658;47.992;10.158;2023-02-26T08:32:05;20.00;33.60
7234;DHT22;3658;47.992;10.158;2023-02-26T08:34:32;20.00;33.50
7234;DHT22;3658;47.992;10.158;2023-02-26T08:36:59;20.00;33.50
7234;DHT22;3658;47.992;10.158;2023-02-26T08:39:27;20.00;33.50
7234;DHT22;3658;47.992;10.158;2023-02-26T08:41:57;19.90;33.70
7234;DHT22;3658;47.992;10.158;2023-02-26T08:44:25;19.80;34.30
7234;DHT22;3658;47.992;10.158;2023-02-26T08:46:52;19.70;34.90
7234;DHT22;3658;47.992;10.158;2023-02-26T08:49:21;19.60;35.10
7234;DHT22;3658;47.992;10.158;2023-02-26T08:51:48;19.60;35.00
7234;DHT22;3658;47.992;10.158;2023-02-26T08:54:15;19.50;34.80
7234;DHT22;3658;47.992;10.158;2023-02-26T08:56:43;19.40;34.60
7234;DHT22;3658;47.992;10.158;2023-02-26T08:59:10;19.40;34.50
7234;DHT22;3658;47.992;10.158;2023-02-26T09:01:38;19.40;34.40
7234;DHT22;3658;47.992;10.158;2023-02-26T09:04:07;19.40;34.30
7234;DHT22;3658;47.992;10.158;2023-02-26T09:06:35;19.40;34.30
7234;DHT22;3658;47.992;10.158;2023-02-26T09:09:02;19.40;34.20
7234;DHT22;3658;47.992;10.158;2023-02-26T09:11:29;19.40;34.10
7234;DHT22;3658;47.992;10.158;2023-02-26T09:13:58;19.40;34.10
7234;DHT22;3658;47.992;10.158;2023-02-26T09:16:26;19.40;34.00
7234;DHT22;3658;47.992;10.158;2023-02-26T09:18:54;19.40;34.10
7234;DHT22;3658;47.992;10.158;2023-02-26T09:21:21;19.30;34.20
7234;DHT22;3658;47.992;10.158;2023-02-26T09:23:48;19.30;34.10
7234;DHT22;3658;47.992;10.158;2023-02-26T09:26:15;19.30;34.00
7234;DHT22;3658;47.992;10.158;2023-02-26T09:28:42;19.30;33.90
7234;DHT22;3658;47.992;10.158;2023-02-26T09:31:11;19.30;33.90
7234;DHT22;3658;47.992;10.158;2023-02-26T09:33:38;19.30;33.80
7234;DHT22;3658;47.992;10.158;2023-02-26T09:36:06;19.30;33.90
7234;DHT22;3658;47.992;10.158;2023-02-26T09:38:33;19.30;33.70
7234;DHT22;3658;47.992;10.158;2023-02-26T09:41:05;19.30;33.70
7234;DHT22;3658;47.992;10.158;2023-02-26T09:43:57;19.30;33.70
7234;DHT22;3658;47.992;10.158;2023-02-26T09:46:34;19.40;33.80
7234;DHT22;3658;47.992;10.158;2023-02-26T09:49:14;19.50;34.50
7234;DHT22;3658;47.992;10.158;2023-02-26T09:51:42;19.50;34.70
7234;DHT22;3658;47.992;10.158;2023-02-26T09:54:15;19.50;35.00
7234;DHT22;3658;47.992;10.158;2023-02-26T09:56:44;19.60;35.20
7234;DHT22;3658;47.992;10.158;2023-02-26T09:59:11;19.50;35.50
7234;DHT22;3658;47.992;10.158;2023-02-26T10:01:45;19.90;36.00
7234;DHT22;3658;47.992;10.158;2023-02-26T10:04:22;19.50;35.70
7234;DHT22;3658;47.992;10.158;2023-02-26T10:07:08;19.50;35.70
7234;DHT22;3658;47.992;10.158;2023-02-26T10:09:48;19.50;35.90
7234;DHT22;3658;47.992;10.158;2023-02-26T10:12:21;19.50;35.90
7234;DHT22;3658;47.992;10.158;2023-02-26T10:14:54;19.50;35.90
7234;DHT22;3658;47.992;10.158;2023-02-26T10:17:29;19.40;35.90
7234;DHT22;3658;47.992;10.158;2023-02-26T10:20:00;19.40;36.00
7234;DHT22;3658;47.992;10.158;2023-02-26T10:22:32;19.40;36.00
7234;DHT22;3658;47.992;10.158;2023-02-26T10:25:05;19.40;36.00
7234;DHT22;3658;47.992;10.158;2023-02-26T10:27:41;19.40;36.00
7234;DHT22;3658;47.992;10.158;2023-02-26T10:30:15;19.40;36.10
7234;DHT22;3658;47.992;10.158;2023-02-26T10:32:56;19.40;36.10
7234;DHT22;3658;47.992;10.158;2023-02-26T10:35:27;19.40;36.10
7234;DHT22;3658;47.992;10.158;2023-02-26T10:37:57;19.40;36.10
7234;DHT22;3658;47.992;10.158;2023-02-26T10:40:31;19.40;36.10
7234;DHT22;3658;47.992;10.158;2023-02-26T10:43:07;19.40;36.10
7234;DHT22;3658;47.992;10.158;2023-02-26T10:45:45;19.40;36.10
7234;DHT22;3658;47.992;10.158;2023-02-26T10:48:35;19.40;36.20
7234;DHT22;3658;47.992;10.158;2023-02-26T10:51:11;19.30;36.00
7234;DHT22;3658;47.992;10.158;2023-02-26T10:53:43;19.30;36.00
7234;DHT22;3658;47.992;10.158;2023-02-26T10:56:15;19.30;36.00
7234;DHT22;3658;47.992;10.158;2023-02-26T10:58:44;19.30;36.00
7234;DHT22;3658;47.992;10.158;2023-02-26T11:01:16;19.30;36.00
7234;DHT22;3658;47.992;10.158;2023-02-26T11:03:47;19.30;36.00
7234;DHT22;3658;47.992;10.158;2023-02-26T11:06:20;19.30;36.00
7234;DHT22;3658;47.992;10.158;2023-02-26T11:08:52;19.30;36.00
7234;DHT22;3658;47.992;10.158;2023-02-26T11:11:45;19.30;36.00
7234;DHT22;3658;47.992;10.158;2023-02-26T11:14:14;19.30;36.00
7234;DHT22;3658;47.992;10.158;2023-02-26T11:16:45;19.30;35.90
7234;DHT22;3658;47.992;10.158;2023-02-26T11:19:19;19.30;35.90
7234;DHT22;3658;47.992;10.158;2023-02-26T11:21:58;19.30;35.90
7234;DHT22;3658;47.992;10.158;2023-02-26T11:24:30;19.30;35.90
7234;DHT22;3658;47.992;10.158;2023-02-26T11:26:59;19.30;35.90
7234;DHT22;3658;47.992;10.158;2023-02-26T11:29:41;19.30;36.00
7234;DHT22;3658;47.992;10.158;2023-02-26T11:32:17;19.30;35.90
7234;DHT22;3658;47.992;10.158;2023-02-26T11:34:48;19.30;36.60
7234;DHT22;3658;47.992;10.158;2023-02-26T11:37:17;19.30;35.80
7234;DHT22;3658;47.992;10.158;2023-02-26T11:39:46;19.30;35.80
7234;DHT22;3658;47.992;10.158;2023-02-26T11:42:13;19.20;35.80
7234;DHT22;3658;47.992;10.158;2023-02-26T11:44:45;19.20;36.40
7234;DHT22;3658;47.992;10.158;2023-02-26T11:47:20;19.20;35.80
7234;DHT22;3658;47.992;10.158;2023-02-26T11:49:52;19.20;35.80
7234;DHT22;3658;47.992;10.158;2023-02-26T11:52:22;19.30;35.90
7234;DHT22;3658;47.992;10.158;2023-02-26T11:54:58;19.30;35.80
7234;DHT22;3658;47.992;10.158;2023-02-26T11:57:28;19.20;35.80
7234;DHT22;3658;47.992;10.158;2023-02-26T11:59:57;19.20;35.90
7234;DHT22;3658;47.992;10.158;2023-02-26T12:02:32;19.20;35.90
7234;DHT22;3658;47.992;10.158;2023-02-26T12:05:04;19.30;36.00
7234;DHT22;3658;47.992;10.158;2023-02-26T12:07:32;19.30;36.00
7234;DHT22;3658;47.992;10.158;2023-02-26T12:09:59;19.30;36.20
7234;DHT22;3658;47.992;10.158;2023-02-26T12:12:40;19.30;36.30
7234;DHT22;3658;47.992;10.158;2023-02-26T12:15:29;19.30;36.20
7234;DHT22;3658;47.992;10.158;2023-02-26T12:18:22;19.30;36.00
7234;DHT22;3658;47.992;10.158;2023-02-26T12:21:06;19.30;36.30
7234;DHT22;3658;47.992;10.158;2023-02-26T12:24:05;19.40;36.50
7234;DHT22;3658;47.992;10.158;2023-02-26T12:26:39;19.40;36.60
7234;DHT22;3658;47.992;10.158;2023-02-26T12:29:24;19.40;36.40
7234;DHT22;3658;47.992;10.158;2023-02-26T12:32:14;19.40;36.40
7234;DHT22;3658;47.992;10.158;2023-02-26T12:35:01;19.40;36.40
7234;DHT22;3658;47.992;10.158;2023-02-26T12:37:44;19.40;36.40
7234;DHT22;3658;47.992;10.158;2023-02-26T12:40:30;19.40;36.30
7234;DHT22;3658;47.992;10.158;2023-02-26T12:43:05;19.40;36.30
7234;DHT22;3658;47.992;10.158;2023-02-26T12:45:41;19.40;36.30
7234;DHT22;3658;47.992;10.158;2023-02-26T12:48:41;19.40;36.40
7234;DHT22;3658;47.992;10.158;2023-02-26T12:51:18;19.40;36.30
7234;DHT22;3658;47.992;10.158;2023-02-26T12:54:08;19.40;36.20
7234;DHT22;3658;47.992;10.158;2023-02-26T12:56:58;19.40;36.30
7234;DHT22;3658;47.992;10.158;2023-02-26T12:59:50;19.20;34.30
7234;DHT22;3658;47.992;10.158;2023-02-26T13:02:56;18.90;31.20
7234;DHT22;3658;47.992;10.158;2023-02-26T13:05:41;18.60;29.40
7234;DHT22;3658;47.992;10.158;2023-02-26T13:08:19;18.50;28.70
7234;DHT22;3658;47.992;10.158;2023-02-26T13:10:58;18.70;29.40
7234;DHT22;3658;47.992;10.158;2023-02-26T13:13:47;18.80;29.90
7234;DHT22;3658;47.992;10.158;2023-02-26T13:16:25;19.00;30.60
7234;DHT22;3658;47.992;10.158;2023-02-26T13:19:06;19.00;31.10
7234;DHT22;3658;47.992;10.158;2023-02-26T13:21:38;19.10;31.50
7234;DHT22;3658;47.992;10.158;2023-02-26T13:24:12;19.10;31.70
7234;DHT22;3658;47.992;10.158;2023-02-26T13:26:42;19.20;32.20
7234;DHT22;3658;47.992;10.158;2023-02-26T13:29:13;19.20;32.50
7234;DHT22;3658;47.992;10.158;2023-02-26T13:31:46;19.30;32.70
7234;DHT22;3658;47.992;10.158;2023-02-26T13:34:17;19.30;32.90
7234;DHT22;3658;47.992;10.158;2023-02-26T13:36:48;19.30;33.10
7234;DHT22;3658;47.992;10.158;2023-02-26T13:42:26;19.30;33.30
7234;DHT22;3658;47.992;10.158;2023-02-26T13:45:06;19.30;33.30
7234;DHT22;3658;47.992;10.158;2023-02-26T13:47:50;19.30;33.50
7234;DHT22;3658;47.992;10.158;2023-02-26T13:50:29;19.40;33.70
7234;DHT22;3658;47.992;10.158;2023-02-26T13:53:02;19.40;33.90
7234;DHT22;3658;47.992;10.158;2023-02-26T13:55:41;19.40;33.90
7234;DHT22;3658;47.992;10.158;2023-02-26T13:58:38;19.40;34.00
7234;DHT22;3658;47.992;10.158;2023-02-26T14:01:08;19.40;34.10
7234;DHT22;3658;47.992;10.158;2023-02-26T14:03:40;19.40;34.30
7234;DHT22;3658;47.992;10.158;2023-02-26T14:06:21;19.40;34.20
7234;DHT22;3658;47.992;10.158;2023-02-26T14:08:51;19.40;34.40
7234;DHT22;3658;47.992;10.158;2023-02-26T14:11:55;19.50;34.60
7234;DHT22;3658;47.992;10.158;2023-02-26T14:14:33;19.40;34.60
7234;DHT22;3658;47.992;10.158;2023-02-26T14:17:28;19.50;34.70
7234;DHT22;3658;47.992;10.158;2023-02-26T14:20:17;19.50;34.60
7234;DHT22;3658;47.992;10.158;2023-02-26T14:22:47;19.50;34.70
7234;DHT22;3658;47.992;10.158;2023-02-26T14:25:28;19.50;34.80
7234;DHT22;3658;47.992;10.158;2023-02-26T14:28:19;19.50;34.80
7234;DHT22;3658;47.992;10.158;2023-02-26T14:31:18;19.50;35.50
7234;DHT22;3658;47.992;10.158;2023-02-26T14:33:58;19.60;35.70
7234;DHT22;3658;47.992;10.158;2023-02-26T14:36:33;19.60;35.70
7234;DHT22;3658;47.992;10.158;2023-02-26T14:39:03;19.60;35.70
7234;DHT22;3658;47.992;10.158;2023-02-26T14:41:35;19.60;35.70
7234;DHT22;3658;47.992;10.158;2023-02-26T14:44:10;19.60;35.30
7234;DHT22;3658;47.992;10.158;2023-02-26T14:46:40;19.40;34.80
7234;DHT22;3658;47.992;10.158;2023-02-26T14:49:14;19.40;34.80
7234;DHT22;3658;47.992;10.158;2023-02-26T14:51:52;19.40;34.70
7234;DHT22;3658;47.992;10.158;2023-02-26T14:54:32;19.30;34.60
7234;DHT22;3658;47.992;10.158;2023-02-26T14:57:13;19.30;34.70
7234;DHT22;3658;47.992;10.158;2023-02-26T14:59:59;19.30;34.80
7234;DHT22;3658;47.992;10.158;2023-02-26T15:02:46;19.30;34.70
7234;DHT22;3658;47.992;10.158;2023-02-26T15:05:25;19.40;34.60
7234;DHT22;3658;47.992;10.158;2023-02-26T15:08:27;19.40;34.50
7234;DHT22;3658;47.992;10.158;2023-02-26T15:11:08;19.40;34.60
7234;DHT22;3658;47.992;10.158;2023-02-26T15:13:54;19.40;34.50
7234;DHT22;3658;47.992;10.158;2023-02-26T15:16:32;19.40;34.50
7234;DHT22;3658;47.992;10.158;2023-02-26T15:19:17;19.40;34.50
7234;DHT22;3658;47.992;10.158;2023-02-26T15:21:59;19.40;34.50
7234;DHT22;3658;47.992;10.158;2023-02-26T15:24:29;19.40;34.50
7234;DHT22;3658;47.992;10.158;2023-02-26T15:27:00;19.40;34.40
7234;DHT22;3658;47.992;10.158;2023-02-26T15:29:33;19.40;34.50
7234;DHT22;3658;47.992;10.158;2023-02-26T15:32:05;19.40;34.40
7234;DHT22;3658;47.992;10.158;2023-02-26T15:34:34;19.40;34.50
7234;DHT22;3658;47.992;10.158;2023-02-26T15:37:01;19.50;34.50
7234;DHT22;3658;47.992;10.158;2023-02-26T15:39:28;19.50;34.50
7234;DHT22;3658;47.992;10.158;2023-02-26T15:41:55;19.40;34.50
7234;DHT22;3658;47.992;10.158;2023-02-26T15:44:26;19.40;34.50
7234;DHT22;3658;47.992;10.158;2023-02-26T15:46:56;19.40;34.50
7234;DHT22;3658;47.992;10.158;2023-02-26T15:49:27;19.40;34.50
7234;DHT22;3658;47.992;10.158;2023-02-26T15:51:57;19.40;34.50
7234;DHT22;3658;47.992;10.158;2023-02-26T15:54:28;19.40;34.50
7234;DHT22;3658;47.992;10.158;2023-02-26T15:57:00;19.40;34.50
7234;DHT22;3658;47.992;10.158;2023-02-26T15:59:29;19.50;34.60
7234;DHT22;3658;47.992;10.158;2023-02-26T16:01:57;19.40;34.40
7234;DHT22;3658;47.992;10.158;2023-02-26T16:04:25;19.50;34.40
7234;DHT22;3658;47.992;10.158;2023-02-26T16:06:54;19.50;34.40
7234;DHT22;3658;47.992;10.158;2023-02-26T16:09:27;19.50;34.40
7234;DHT22;3658;47.992;10.158;2023-02-26T16:12:01;19.40;34.30
7234;DHT22;3658;47.992;10.158;2023-02-26T16:14:34;19.40;34.50
7234;DHT22;3658;47.992;10.158;2023-02-26T16:17:04;19.40;34.50
7234;DHT22;3658;47.992;10.158;2023-02-26T16:19:33;19.40;34.50